Kalisz, Poland

10:46 PM CEST on September 22, 2014 (GMT +0200)
Aeroklub Ostrowski | Change Station
CLOSE
Current Station
Personal Weather Station
Location: Lotnisko Michalkow, EPOM
Elevation: 449 ft
Nearby Weather Stations

Elev 449 ft 51.70 °N, 17.85 °E | Updated 6 minutes ago

Clear
Clear
49.1 °F
Feels Like 46 °F
N
7.0
Wind Variable Wind from WSW
Gusts 12.0 mph

Today
High -- | Low -- °F
--% Chance of Precip.
Yesterday
High -- | Low -- °F
Precip. -- in
6:33 AM 6:46 PM
Waning Crescent, 2% visible
Pressure 29.77 in
Visibility -9999.0 miles
Clouds
Windchill 46 °F
Dew Point 46 °F
Humidity 89%
Rainfall 0.02 in
Snow Depth Not available.
UV Not available.
Pollen Not available.
Air Quality Not available.
Flu Activity Not available.
METAR EPLL 222030Z 26007KT CAVOK 09/07 Q1008

More Conditions Fewer Conditions

Pressure 29.77 in
Visibility -9999.0 miles
Clouds
Windchill 46 °F
Dew Point 46 °F
Humidity 89%
Rainfall 0.02 in
Snow Depth Not available.
UV Not available.
Pollen Not available.
Air Quality Not available.
Flu Activity Not available.
METAR EPLL 222030Z 26007KT CAVOK 09/07 Q1008

More Conditions Fewer Conditions

10-Day Weather Forecast

Almanac

Astronomy

Sep. 22, 2014 Rise Set
Actual Time 6:33 AM CEST 6:46 PM CEST
Civil Twilight 5:59 AM CEST 7:20 PM CEST
Nautical Twilight 5:19 AM CEST 7:59 PM CEST
Astronomical Twilight 4:38 AM CEST 8:40 PM CEST
Moon 4:36 AM CEST 5:50 PM CEST
Length of Visible Light 13h 20m
Length of Day
12h 13m
Tomorrow will be 3m 57s shorter.
Waning Crescent, 2% of the Moon is Illuminated
Today
Waning Crescent
Sep 24
New
Oct 1
First Quarter
Oct 8
Full
Oct 15
Last Quarter

Today's Extremes

Country Highs Country Lows

Community

WunderPhotos

Upload Photos

1,755,522 photos uploaded!

WunderBlogs® & News

Nearby

Snow Depth

Not available.

Earthquake Activity

City Distance Mag. Time & Date
No recent earthquake activity has been reported nearby.
Minimum magnitude displayed is 2.5.

Coastal Water Temperatures

Place Temperature
No Stations Reporting

Nearby Weather Stations